Providence, Rhode Island
Traffic Map
Current Weather Conditions
Providence, Rhode Island
Broken Clouds
Broken Clouds
14°
Feels Like: 0°
Wind Chill: Ceiling: 30000
Heat Index: 14° Visibility: 10mi
Dew Point: Wind: 13mph
Humidity: 71% Direction: 260° (W)
Pressure: 30.15in Gusts: 0mph
Raw Report DataKPVD 011151Z 26011KT 10SM FEW220 FEW250 BKN300 M10/M14 A3015 RMK AO2 SLP210 4/011 T11001144 11100 21117 51006
Traffic Incident Summary
Active as of:
Severity:
Category:
InformationThere was an issue retrieving the traffic information for this location. Please try a different location or try again shortly.
Advertisements
Track Severe Weather on mobile